»·PEaware :: N2506 KBUR-KLAS

N2506 :: KBUR-KLAS

FLIGHT INFORMATION

Flight Status: Arrived
Operator: Privately registered:
United States
More flights under this callsign
Pilot: Daniel L. (32547)
Aircraft: CESSNA 208 CARAVAN
(C208)
More flights by this aircraft type
Origin: KBUR Bob Hope-Burbank
United States
Destination: KLAS McCarran Intl
United States
More flights between these airports :: More routes between these airports
Route: VNY3 DAG CRESO4
File this flight plan on PilotEdge
Remarks:
Altitude:
(Current/Filed)
12,500ft
Speed:
(Current/Filed)
150kts
Departed: 09-Jan-21 12:11 PM
Arrived: 09-Jan-21 01:38 PM
Distance/Time
Traveled:
193nm/1:27
Distance/Time
To Go:
Arrived

Flight Plot

Page will automatically refresh every two minutes.

Flight plan parsing failed; only flown route is shown


Map Options




Map Legend


Flown Route
Filed Route
Departure Airport
Arrival Airport
Navaid (VOR, NDB)
Fix

Horizontal Profiles

Position Reports

Time Latitude Longitude Heading Altitude Ground
Speed
09-Jan-21 11:49 34.200298 -118.359495 349 724ft 0kts
09-Jan-21 11:50 34.200298 -118.359495 349 724ft 0kts
09-Jan-21 11:51 34.200298 -118.359495 349 724ft 0kts
09-Jan-21 11:52 34.200298 -118.359495 349 724ft 0kts
09-Jan-21 11:53 34.200298 -118.359495 349 724ft 0kts
09-Jan-21 11:54 34.200298 -118.359495 349 724ft 0kts
09-Jan-21 11:56 34.200298 -118.359495 349 724ft 0kts
09-Jan-21 11:57 34.200298 -118.359495 349 724ft 0kts
09-Jan-21 11:58 34.200298 -118.359495 349 724ft 0kts
09-Jan-21 11:59 34.200298 -118.359495 349 724ft 0kts
09-Jan-21 12:00 34.200298 -118.359495 349 724ft 0kts
09-Jan-21 12:01 34.200298 -118.359495 349 724ft 0kts
09-Jan-21 12:02 34.200298 -118.359495 349 724ft 0kts
09-Jan-21 12:03 34.200298 -118.359495 349 724ft 0kts
09-Jan-21 12:04 34.200298 -118.359495 349 724ft 0kts
09-Jan-21 12:05 34.200298 -118.359495 349 724ft 0kts
09-Jan-21 12:06 34.200322 -118.359243 151 724ft 6kts
09-Jan-21 12:07 34.198983 -118.363720 273 722ft 28kts
09-Jan-21 12:08 34.198799 -118.368938 191 734ft 0kts
09-Jan-21 12:09 34.198352 -118.368929 156 734ft 14kts
09-Jan-21 12:10 34.197480 -118.348416 108 1217ft 99kts
09-Jan-21 12:12 34.176053 -118.361606 225 2273ft 104kts
09-Jan-21 12:13 34.151327 -118.391123 226 2475ft 134kts
09-Jan-21 12:14 34.124250 -118.423279 224 2484ft 137kts
09-Jan-21 12:15 34.113731 -118.458815 333 2467ft 128kts
09-Jan-21 12:16 34.148440 -118.465581 353 2604ft 119kts
09-Jan-21 12:17 34.179259 -118.471595 352 3430ft 107kts
09-Jan-21 12:18 34.206545 -118.477568 346 4516ft 89kts
09-Jan-21 12:19 34.240907 -118.488142 353 5112ft 149kts
09-Jan-21 12:20 34.281938 -118.496118 353 6010ft 150kts
09-Jan-21 12:21 34.324399 -118.504816 0 6751ft 153kts
09-Jan-21 12:22 34.364168 -118.495124 43 7652ft 145kts
09-Jan-21 12:22 34.383044 -118.461118 57 8461ft 143kts
09-Jan-21 12:24 34.410500 -118.416985 50 9903ft 141kts
09-Jan-21 12:25 34.434813 -118.377941 49 10920ft 157kts
09-Jan-21 12:26 34.463292 -118.332666 50 11028ft 176kts
09-Jan-21 12:26 34.488163 -118.293104 50 11034ft 178kts
09-Jan-21 12:27 34.517916 -118.245580 50 11135ft 177kts
09-Jan-21 12:29 34.552784 -118.189812 51 11140ft 178kts
09-Jan-21 12:30 34.582802 -118.141802 52 11147ft 179kts
09-Jan-21 12:31 34.612909 -118.093496 52 11142ft 178kts
09-Jan-21 12:31 34.632297 -118.049789 74 11141ft 179kts
09-Jan-21 12:32 34.639365 -117.989708 81 11141ft 179kts
09-Jan-21 12:33 34.646207 -117.929758 81 11141ft 179kts
09-Jan-21 12:34 34.652589 -117.869995 80 11141ft 178kts
09-Jan-21 12:35 34.659074 -117.810304 81 11115ft 178kts
09-Jan-21 12:36 34.667187 -117.751354 73 11110ft 176kts
09-Jan-21 12:37 34.681980 -117.694814 71 11114ft 176kts
09-Jan-21 12:38 34.696314 -117.637952 70 11119ft 176kts
09-Jan-21 12:39 34.710920 -117.581162 71 11117ft 175kts
09-Jan-21 12:40 34.725418 -117.524482 70 11125ft 176kts
09-Jan-21 12:41 34.739908 -117.467469 70 11133ft 176kts
09-Jan-21 12:42 34.754491 -117.410213 70 11024ft 178kts
09-Jan-21 12:43 34.769016 -117.352923 70 11002ft 176kts
09-Jan-21 12:44 34.783403 -117.296087 70 11001ft 176kts
09-Jan-21 12:45 34.797797 -117.239155 69 11002ft 176kts
09-Jan-21 12:46 34.812178 -117.182056 69 11015ft 176kts
09-Jan-21 12:47 34.826586 -117.124778 69 11017ft 177kts
09-Jan-21 12:48 34.840969 -117.067448 69 11003ft 176kts
09-Jan-21 12:49 34.855268 -117.010355 69 11010ft 177kts
09-Jan-21 12:50 34.869678 -116.952671 69 11008ft 178kts
09-Jan-21 12:51 34.884048 -116.895038 68 10995ft 177kts
09-Jan-21 12:52 34.898281 -116.837781 68 11001ft 176kts
09-Jan-21 12:53 34.912501 -116.780507 68 11001ft 176kts
09-Jan-21 12:54 34.926673 -116.723265 68 11001ft 176kts
09-Jan-21 12:55 34.940833 -116.665886 68 11007ft 177kts
09-Jan-21 12:56 34.955041 -116.608347 68 11001ft 177kts
09-Jan-21 12:57 34.973238 -116.553318 56 11005ft 174kts
09-Jan-21 12:58 34.996704 -116.501379 57 11003ft 174kts
09-Jan-21 12:59 35.019756 -116.449398 56 11005ft 174kts
09-Jan-21 13:00 35.042835 -116.396671 58 11010ft 177kts
09-Jan-21 13:01 35.066636 -116.344402 57 10998ft 175kts
09-Jan-21 13:02 35.089898 -116.290582 56 11025ft 181kts
09-Jan-21 13:03 35.113669 -116.237157 57 10994ft 178kts
09-Jan-21 13:04 35.137137 -116.183979 57 11001ft 178kts
09-Jan-21 13:05 35.160376 -116.131014 57 10990ft 175kts
09-Jan-21 13:06 35.183519 -116.078454 57 10999ft 175kts
09-Jan-21 13:07 35.206598 -116.025842 57 11000ft 175kts
09-Jan-21 13:08 35.229684 -115.973105 57 11001ft 175kts
09-Jan-21 13:09 35.252828 -115.920231 57 11007ft 175kts
09-Jan-21 13:10 35.275750 -115.867773 57 11069ft 175kts
09-Jan-21 13:11 35.298697 -115.815073 57 11063ft 175kts
09-Jan-21 13:12 35.325806 -115.766349 43 11075ft 172kts
09-Jan-21 13:13 35.358740 -115.723169 44 11073ft 173kts
09-Jan-21 13:14 35.391407 -115.679573 43 11079ft 174kts
09-Jan-21 13:15 35.424067 -115.635821 43 11080ft 173kts
09-Jan-21 13:16 35.456770 -115.592198 44 10950ft 178kts
09-Jan-21 13:17 35.489818 -115.547880 44 10336ft 168kts
09-Jan-21 13:18 35.519927 -115.507557 44 10145ft 153kts
09-Jan-21 13:19 35.548083 -115.469800 43 10127ft 148kts
09-Jan-21 13:20 35.575791 -115.432571 43 10127ft 146kts
09-Jan-21 13:21 35.603130 -115.395868 43 10130ft 145kts
09-Jan-21 13:22 35.630359 -115.359187 43 10130ft 145kts
09-Jan-21 13:23 35.659691 -115.319686 44 9408ft 162kts
09-Jan-21 13:24 35.689515 -115.279459 44 8383ft 155kts
09-Jan-21 13:25 35.718408 -115.240480 45 7403ft 154kts
09-Jan-21 13:26 35.758631 -115.236843 353 6343ft 154kts
09-Jan-21 13:27 35.797918 -115.243171 352 6026ft 131kts
09-Jan-21 13:28 35.832909 -115.248749 352 6016ft 124kts
09-Jan-21 13:29 35.870596 -115.254685 352 6024ft 146kts
09-Jan-21 13:30 35.911672 -115.260742 2 6016ft 150kts
09-Jan-21 13:31 35.949816 -115.241888 21 5415ft 118kts
09-Jan-21 13:32 35.976310 -115.226671 23 4632ft 100kts
09-Jan-21 13:33 36.001364 -115.212580 22 4024ft 99kts
09-Jan-21 13:34 36.025984 -115.198417 24 3437ft 97kts
09-Jan-21 13:35 36.051029 -115.184142 22 2846ft 99kts
09-Jan-21 13:36 36.075780 -115.170081 24 2226ft 83kts
09-Jan-21 13:37 36.089026 -115.162932 328 2148ft 19kts
09-Jan-21 13:38 36.089360 -115.163488 293 2147ft 0kts
09-Jan-21 13:39 36.087946 -115.165622 206 2154ft 21kts
09-Jan-21 13:40 36.085158 -115.168436 250 2163ft 0kts

Navigation Log

Ident Type
Flight plan parsing failed, navigation log unavailable